Time;durP1;ratioP1;P1;durP2;ratioP2;P2;SDS_P1;SDS_P2;PMS_P1;PMS_P2;Temp;Humidity;BMP_temperature;BMP_pressure;BME280_temperature;BME280_humidity;BME280_pressure;Samples;Min_cycle;Max_cycle;Signal;HPM_P1;HPM_P2
2021/07/19 00:09:36;;;;;;;1.70;0.60;;;18.00;99.90;;;;;;20744263;28;20128;-49
2021/07/19 00:19:37;;;;;;;1.23;0.45;;;17.90;99.90;;;;;;20736668;28;20123;-49
2021/07/19 00:29:39;;;;;;;3.47;0.90;;;17.80;99.90;;;;;;20769928;28;20556;-49
2021/07/19 00:39:40;;;;;;;1.88;0.60;;;17.80;99.90;;;;;;20750544;28;20050;-49
2021/07/19 00:49:44;;;;;;;2.47;0.70;;;17.70;99.90;;;;;;20750216;28;20088;-49
2021/07/19 00:59:46;;;;;;;2.55;1.05;;;17.70;99.90;;;;;;20725440;28;20057;-49
2021/07/19 01:09:48;;;;;;;3.45;0.80;;;17.60;99.90;;;;;;20744613;28;20044;-49
2021/07/19 01:19:52;;;;;;;2.40;1.30;;;17.50;99.90;;;;;;20729939;28;20038;-48
2021/07/19 01:29:54;;;;;;;3.58;1.55;;;17.40;99.90;;;;;;20743509;28;20037;-49
2021/07/19 01:39:57;;;;;;;3.42;1.02;;;17.20;99.90;;;;;;20728257;28;20180;-49
2021/07/19 01:49:59;;;;;;;1.90;0.85;;;16.90;99.90;;;;;;20740902;28;20056;-49
2021/07/19 02:00:04;;;;;;;2.70;0.80;;;16.90;99.90;;;;;;20752518;28;20072;-49
2021/07/19 02:10:10;;;;;;;1.98;0.95;;;16.80;99.90;;;;;;20749436;28;20045;-49
2021/07/19 02:20:12;;;;;;;5.35;1.35;;;16.70;99.90;;;;;;20739774;28;20033;-48
2021/07/19 02:30:16;;;;;;;1.88;0.77;;;16.70;99.90;;;;;;20768139;28;20041;-48
2021/07/19 02:40:19;;;;;;;2.67;1.45;;;16.70;99.90;;;;;;20747732;28;20049;-49
2021/07/19 02:50:24;;;;;;;2.50;1.42;;;16.60;99.90;;;;;;20749076;28;20070;-48
2021/07/19 03:00:26;;;;;;;2.88;1.17;;;16.50;99.90;;;;;;20751206;28;20061;-48
2021/07/19 03:10:29;;;;;;;2.70;1.00;;;16.30;99.90;;;;;;20749514;28;20041;-49
2021/07/19 03:20:36;;;;;;;4.15;1.08;;;16.20;99.90;;;;;;20747842;28;20197;-49
2021/07/19 03:30:40;;;;;;;3.00;1.10;;;16.20;99.90;;;;;;20752669;28;20136;-49
2021/07/19 03:40:41;;;;;;;3.08;1.05;;;16.20;99.90;;;;;;20732935;28;20050;-49
2021/07/19 03:50:43;;;;;;;2.58;0.90;;;16.20;99.90;;;;;;20745367;28;20048;-48
2021/07/19 04:00:44;;;;;;;3.13;0.77;;;16.10;99.90;;;;;;20759647;28;20045;-48
2021/07/19 04:10:47;;;;;;;2.10;0.80;;;16.00;99.90;;;;;;20743332;28;20052;-49
2021/07/19 04:20:53;;;;;;;6.07;0.90;;;15.90;99.90;;;;;;20742229;28;20037;-49
2021/07/19 04:30:57;;;;;;;1.50;0.55;;;15.80;99.90;;;;;;20747527;28;20047;-49
2021/07/19 04:40:58;;;;;;;4.35;1.52;;;15.80;99.90;;;;;;20721558;28;20049;-49
2021/07/19 04:50:59;;;;;;;3.50;0.82;;;15.80;99.90;;;;;;20740919;28;20045;-48
2021/07/19 05:01:05;;;;;;;4.97;1.25;;;16.10;99.90;;;;;;20733917;28;20061;-48
2021/07/19 05:11:07;;;;;;;8.50;1.80;;;17.00;99.90;;;;;;20736517;28;20044;-48
2021/07/19 05:21:08;;;;;;;1.65;0.70;;;17.10;99.90;;;;;;20730363;28;20347;-49
2021/07/19 05:31:10;;;;;;;2.65;1.20;;;17.40;99.90;;;;;;20761231;28;20050;-48
2021/07/19 05:41:12;;;;;;;4.30;0.90;;;17.70;99.90;;;;;;20745582;28;20083;-49
2021/07/19 05:51:13;;;;;;;4.78;1.75;;;17.80;99.90;;;;;;20725286;28;20148;-50
2021/07/19 06:01:14;;;;;;;2.50;0.75;;;17.90;99.90;;;;;;20747982;28;20257;-50
2021/07/19 06:11:15;;;;;;;11.30;2.40;;;18.20;99.90;;;;;;20753950;28;20095;-49
2021/07/19 06:21:16;;;;;;;14.60;5.55;;;18.60;99.90;;;;;;20764497;28;20057;-48
2021/07/19 06:31:17;;;;;;;7.53;1.48;;;18.80;99.90;;;;;;20704071;28;20030;-49
2021/07/19 06:41:18;;;;;;;3.58;1.35;;;19.00;99.90;;;;;;20735265;28;20049;-49
2021/07/19 07:03:12;;;;;;;3.50;1.13;;;18.80;99.90;;;;;;21136115;23;20040;-49
2021/07/19 07:13:14;;;;;;;3.10;1.52;;;19.20;99.90;;;;;;20732334;28;20149;-49
2021/07/19 07:23:15;;;;;;;7.32;1.20;;;19.30;99.90;;;;;;20723000;28;20493;-49
2021/07/19 07:33:16;;;;;;;3.78;0.98;;;19.40;99.90;;;;;;20718751;28;20041;-49
2021/07/19 07:43:17;;;;;;;2.42;0.70;;;19.30;99.90;;;;;;20734808;28;20123;-49
2021/07/19 07:53:18;;;;;;;8.57;2.83;;;19.30;99.90;;;;;;20733253;28;20038;-48
2021/07/19 08:03:20;;;;;;;4.38;1.70;;;19.60;99.90;;;;;;20739153;28;20056;-48
2021/07/19 08:13:21;;;;;;;4.22;1.75;;;19.90;99.90;;;;;;20738665;28;20116;-49
2021/07/19 08:23:23;;;;;;;1.70;0.95;;;19.90;99.90;;;;;;20697726;28;20053;-50
2021/07/19 08:33:24;;;;;;;2.65;1.23;;;19.90;99.90;;;;;;20735980;28;20352;-49
2021/07/19 08:43:25;;;;;;;2.65;0.68;;;20.50;99.90;;;;;;20742315;28;20049;-49
2021/07/19 08:53:28;;;;;;;2.20;1.15;;;20.30;99.90;;;;;;20712303;28;20255;-49
2021/07/19 09:03:29;;;;;;;3.45;1.20;;;20.10;99.90;;;;;;20730142;28;21599;-49
2021/07/19 09:13:32;;;;;;;8.05;2.55;;;20.50;99.90;;;;;;20737323;28;20153;-49
2021/07/19 09:23:33;;;;;;;4.32;1.10;;;21.00;99.90;;;;;;20704096;28;20073;-49
2021/07/19 09:33:37;;;;;;;3.08;1.23;;;21.10;99.90;;;;;;20736618;28;20045;-49
2021/07/19 09:43:38;;;;;;;3.53;1.38;;;21.30;99.90;;;;;;20735746;28;20046;-50
2021/07/19 09:53:43;;;;;;;4.93;1.35;;;21.40;99.90;;;;;;20719074;28;20041;-50
2021/07/19 10:03:45;;;;;;;2.47;1.10;;;21.70;99.90;;;;;;20734584;28;20143;-50
2021/07/19 10:13:50;;;;;;;3.80;1.23;;;21.90;99.90;;;;;;20715214;28;20034;-50
2021/07/19 10:23:51;;;;;;;2.92;1.20;;;22.10;99.90;;;;;;20712698;28;20049;-50
2021/07/19 10:33:56;;;;;;;5.80;1.40;;;22.10;99.90;;;;;;20724637;28;20045;-50
2021/07/19 10:44:03;;;;;;;2.75;1.50;;;22.00;99.90;;;;;;20701095;28;20088;-50
2021/07/19 10:54:21;;;;;;;3.13;1.20;;;22.50;99.90;;;;;;20771397;28;20053;-48
2021/07/19 11:04:23;;;;;;;4.03;1.15;;;22.40;99.90;;;;;;20743568;28;20104;-50
2021/07/19 11:14:25;;;;;;;2.97;1.42;;;22.70;99.90;;;;;;20737422;28;20145;-48
2021/07/19 11:24:26;;;;;;;3.63;1.50;;;22.80;99.90;;;;;;20738174;28;20049;-48
2021/07/19 11:34:27;;;;;;;3.67;1.55;;;22.80;99.90;;;;;;20735435;28;20050;-50
2021/07/19 11:44:32;;;;;;;3.55;1.77;;;22.90;99.90;;;;;;20725370;28;20050;-48
2021/07/19 11:54:34;;;;;;;2.13;0.82;;;22.90;99.90;;;;;;20687510;28;20085;-48
2021/07/19 12:04:40;;;;;;;6.60;1.60;;;22.70;99.90;;;;;;20728181;28;20054;-48
2021/07/19 12:14:41;;;;;;;3.53;1.30;;;23.20;99.90;;;;;;20724610;28;20034;-48
2021/07/19 12:24:42;;;;;;;4.03;1.20;;;23.20;99.90;;;;;;20721110;28;20053;-48
2021/07/19 12:34:46;;;;;;;2.85;0.93;;;23.10;99.90;;;;;;20703926;28;20036;-49
2021/07/19 12:44:53;;;;;;;3.10;1.48;;;22.90;99.90;;;;;;20718885;28;20060;-48
2021/07/19 12:55:03;;;;;;;3.47;1.83;;;23.20;99.90;;;;;;20689875;28;20804;-48
2021/07/19 13:05:10;;;;;;;7.07;1.52;;;23.40;99.90;;;;;;20701044;28;20050;-48
2021/07/19 13:15:15;;;;;;;2.28;0.93;;;23.30;99.90;;;;;;20710814;28;20048;-48
2021/07/19 13:25:26;;;;;;;4.20;1.45;;;23.80;99.90;;;;;;20727808;28;20026;-48
2021/07/19 13:35:40;;;;;;;2.83;1.30;;;23.20;99.90;;;;;;20719378;28;20090;-48
2021/07/19 13:45:41;;;;;;;2.95;1.10;;;22.90;99.90;;;;;;20724062;28;20248;-48
2021/07/19 13:55:42;;;;;;;2.88;1.13;;;22.90;99.90;;;;;;20727950;28;20045;-49
2021/07/19 14:05:44;;;;;;;5.35;1.33;;;22.90;99.90;;;;;;20679830;28;20185;-50
2021/07/19 14:15:48;;;;;;;4.05;1.23;;;22.90;99.90;;;;;;20711299;28;20164;-48
2021/07/19 14:25:49;;;;;;;3.28;1.00;;;23.10;99.90;;;;;;20732941;28;20178;-48
2021/07/19 14:35:52;;;;;;;2.50;1.02;;;22.70;99.90;;;;;;20732029;28;20053;-48
2021/07/19 14:45:53;;;;;;;3.97;1.65;;;22.80;99.90;;;;;;20734916;28;20045;-48
2021/07/19 14:55:54;;;;;;;3.35;1.52;;;22.70;99.90;;;;;;20737261;28;20805;-50
2021/07/19 15:05:55;;;;;;;5.38;1.65;;;22.60;99.90;;;;;;20757174;28;20042;-48
2021/07/19 15:15:57;;;;;;;4.03;1.50;;;22.50;99.90;;;;;;20746847;28;20034;-48
2021/07/19 15:25:58;;;;;;;4.15;1.98;;;22.60;99.90;;;;;;20741492;28;20054;-48
2021/07/19 15:35:59;;;;;;;3.92;1.52;;;22.30;99.90;;;;;;20734170;28;20050;-48
2021/07/19 15:46:00;;;;;;;5.07;1.55;;;22.10;99.90;;;;;;20725957;28;20084;-50
2021/07/19 15:56:02;;;;;;;4.28;1.30;;;22.30;99.90;;;;;;20726426;28;20377;-50
2021/07/19 16:06:03;;;;;;;5.25;1.30;;;22.20;99.90;;;;;;20701013;28;20104;-50
2021/07/19 16:16:04;;;;;;;3.63;1.65;;;22.10;99.90;;;;;;20724519;28;20033;-50
2021/07/19 16:26:05;;;;;;;5.10;1.20;;;21.90;99.90;;;;;;20712727;28;20044;-50
2021/07/19 16:36:07;;;;;;;3.58;1.42;;;21.80;99.90;;;;;;20721179;28;20046;-50
2021/07/19 16:56:11;;;;;;;3.97;1.33;;;21.50;99.90;;;;;;20716842;28;20095;-50
2021/07/19 17:06:13;;;;;;;3.75;1.35;;;21.30;99.90;;;;;;20706934;28;20045;-49
2021/07/19 17:16:14;;;;;;;5.00;1.73;;;20.50;99.90;;;;;;20712418;28;20539;-50
2021/07/19 17:26:15;;;;;;;3.33;1.60;;;20.50;99.90;;;;;;20715018;28;20071;-50
2021/07/19 17:36:16;;;;;;;3.85;1.63;;;20.40;99.90;;;;;;20700277;28;20050;-49
2021/07/19 17:46:17;;;;;;;3.28;1.00;;;20.30;99.90;;;;;;20714430;28;20052;-51
2021/07/19 17:56:19;;;;;;;4.40;1.40;;;20.00;99.90;;;;;;20724075;28;20060;-49
2021/07/19 18:06:21;;;;;;;4.63;1.80;;;20.10;99.90;;;;;;20692441;28;20049;-50
2021/07/19 18:16:22;;;;;;;6.70;2.53;;;20.10;99.90;;;;;;20727256;28;20058;-49
2021/07/19 18:36:34;;;;;;;3.65;1.02;;;19.60;99.90;;;;;;20730085;28;20652;-49
2021/07/19 18:46:35;;;;;;;6.30;2.13;;;19.50;99.90;;;;;;20692786;28;20139;-50
2021/07/19 18:56:37;;;;;;;5.07;1.58;;;19.50;99.90;;;;;;20726546;28;20111;-49
2021/07/19 19:06:38;;;;;;;3.13;1.15;;;19.30;99.90;;;;;;20709079;28;20058;-49
2021/07/19 19:16:40;;;;;;;8.48;1.52;;;19.30;99.90;;;;;;20733147;28;20049;-49
2021/07/19 19:26:41;;;;;;;5.25;1.80;;;19.30;99.90;;;;;;20723957;28;20121;-50
2021/07/19 19:36:43;;;;;;;5.30;1.90;;;19.00;99.90;;;;;;20726954;28;20059;-50
2021/07/19 19:46:44;;;;;;;5.78;1.70;;;18.80;99.90;;;;;;20720675;28;20060;-49
2021/07/19 19:56:45;;;;;;;5.07;1.50;;;18.90;99.90;;;;;;20709519;28;20124;-50
2021/07/19 20:06:47;;;;;;;5.75;1.65;;;18.60;99.90;;;;;;20727373;28;20049;-49
2021/07/19 20:16:48;;;;;;;4.82;1.67;;;18.50;99.90;;;;;;20719533;28;20425;-50
2021/07/19 20:26:49;;;;;;;3.13;1.73;;;18.40;99.90;;;;;;20739586;28;20060;-49
2021/07/19 20:36:50;;;;;;;4.28;1.20;;;18.40;99.90;;;;;;20731502;28;20050;-51
2021/07/19 20:46:54;;;;;;;3.95;1.33;;;18.20;99.90;;;;;;20734525;28;20041;-49
2021/07/19 20:56:55;;;;;;;4.88;1.40;;;18.10;99.90;;;;;;20739310;28;20038;-49
2021/07/19 21:06:56;;;;;;;4.40;1.70;;;18.00;99.90;;;;;;20737668;28;20041;-48
2021/07/19 21:16:58;;;;;;;5.38;1.85;;;17.90;99.90;;;;;;20731515;28;20421;-49
2021/07/19 21:26:59;;;;;;;5.80;1.85;;;17.80;99.90;;;;;;20728847;28;20046;-49
2021/07/19 21:37:00;;;;;;;4.95;1.70;;;17.70;99.90;;;;;;20690991;28;20042;-49
2021/07/19 21:47:01;;;;;;;5.40;2.10;;;17.80;99.90;;;;;;20732821;28;20046;-49
2021/07/19 21:57:03;;;;;;;3.83;1.55;;;17.60;99.90;;;;;;20737587;28;20298;-48
2021/07/19 22:07:06;;;;;;;3.88;1.38;;;17.60;99.90;;;;;;20652181;28;20050;-49
2021/07/19 22:17:08;;;;;;;5.60;1.60;;;17.50;99.90;;;;;;20720404;28;20137;-48
2021/07/19 22:27:10;;;;;;;5.28;2.20;;;17.20;99.90;;;;;;20721045;28;20308;-49
2021/07/19 22:37:12;;;;;;;3.95;1.27;;;17.20;99.90;;;;;;20716377;28;20127;-48
2021/07/19 22:47:15;;;;;;;4.78;1.85;;;17.10;99.90;;;;;;20735839;28;20034;-48
2021/07/19 22:57:17;;;;;;;4.03;1.60;;;17.00;99.90;;;;;;20732943;28;20431;-48
2021/07/19 23:07:18;;;;;;;5.25;1.77;;;16.90;99.90;;;;;;20729352;28;20045;-49
2021/07/19 23:17:20;;;;;;;3.42;1.50;;;16.70;99.90;;;;;;20721659;28;20057;-49
2021/07/19 23:27:21;;;;;;;4.40;1.73;;;16.60;99.90;;;;;;20716032;28;20042;-48
2021/07/19 23:37:23;;;;;;;5.65;1.40;;;16.50;99.90;;;;;;20722652;28;20116;-48
2021/07/19 23:47:25;;;;;;;5.70;1.77;;;16.40;99.90;;;;;;20730708;28;20041;-48
2021/07/19 23:57:26;;;;;;;3.75;1.55;;;16.30;99.90;;;;;;20722190;28;20119;-48
